createdAt,value
2018-07-28T00:00:21.335Z,12.30
2018-07-28T00:02:49.897Z,12.43
2018-07-28T00:05:17.481Z,12.20
2018-07-28T00:07:45.104Z,11.97
2018-07-28T00:10:13.533Z,12.33
2018-07-28T00:12:41.998Z,13.40
2018-07-28T00:15:10.691Z,13.87
2018-07-28T00:17:38.830Z,11.30
2018-07-28T00:20:08.098Z,11.50
2018-07-28T00:22:35.801Z,12.97
2018-07-28T00:25:04.045Z,12.90
2018-07-28T00:27:31.666Z,12.20
2018-07-28T00:29:59.308Z,11.27
2018-07-28T00:32:26.885Z,12.60
2018-07-28T00:34:54.453Z,16.77
2018-07-28T00:37:22.026Z,12.87
2018-07-28T00:39:49.599Z,12.43
2018-07-28T00:42:17.208Z,11.57
2018-07-28T00:44:44.843Z,10.90
2018-07-28T00:47:12.379Z,11.90
2018-07-28T00:49:39.840Z,10.73
2018-07-28T00:52:07.423Z,11.30
2018-07-28T00:54:35.010Z,11.33
2018-07-28T00:57:02.602Z,12.00
2018-07-28T00:59:30.208Z,12.70
2018-07-28T01:01:57.791Z,10.90
2018-07-28T01:04:25.398Z,11.40
2018-07-28T01:06:53.033Z,12.00
2018-07-28T01:09:20.606Z,12.47
2018-07-28T01:11:48.186Z,12.83
2018-07-28T01:14:15.900Z,12.73
2018-07-28T01:16:43.496Z,13.40
2018-07-28T01:19:11.097Z,14.80
2018-07-28T01:21:38.718Z,13.80
2018-07-28T01:24:06.473Z,13.70
2018-07-28T01:26:34.069Z,13.40
2018-07-28T01:29:07.286Z,14.07
2018-07-28T01:31:34.912Z,12.03
2018-07-28T01:34:02.476Z,12.00
2018-07-28T01:36:30.032Z,14.90
2018-07-28T01:38:57.650Z,12.87
2018-07-28T01:41:25.199Z,14.00
2018-07-28T01:43:52.791Z,17.17
2018-07-28T01:46:20.400Z,13.30
2018-07-28T01:48:47.972Z,14.13
2018-07-28T01:51:15.550Z,14.73
2018-07-28T01:53:43.137Z,13.33
2018-07-28T01:56:10.687Z,13.60
2018-07-28T01:58:38.405Z,13.20
2018-07-28T02:01:06.022Z,13.80
2018-07-28T02:03:33.613Z,15.17
2018-07-28T02:06:01.219Z,14.80
2018-07-28T02:08:28.811Z,15.60
2018-07-28T02:10:56.388Z,15.23
2018-07-28T02:13:24.006Z,15.60
2018-07-28T02:15:51.556Z,16.63
2018-07-28T02:18:19.113Z,15.57
2018-07-28T02:20:46.745Z,14.73
2018-07-28T02:23:14.337Z,15.07
2018-07-28T02:25:41.941Z,14.57
2018-07-28T02:28:09.512Z,15.90
2018-07-28T02:30:37.220Z,15.13
2018-07-28T02:33:04.832Z,16.30
2018-07-28T02:35:32.748Z,16.60
2018-07-28T02:38:00.317Z,17.23
2018-07-28T02:40:27.941Z,15.60
2018-07-28T02:42:55.526Z,15.87
2018-07-28T02:45:23.162Z,16.30
2018-07-28T02:47:50.809Z,15.20
2018-07-28T02:50:18.440Z,16.53
2018-07-28T02:52:47.731Z,16.20
2018-07-28T02:55:15.350Z,14.33
2018-07-28T02:57:42.907Z,15.70
2018-07-28T03:00:10.542Z,15.00
2018-07-28T03:02:38.100Z,15.30
2018-07-28T03:05:06.458Z,15.83
2018-07-28T03:07:34.018Z,16.80
2018-07-28T03:10:01.624Z,14.90
2018-07-28T03:12:29.136Z,18.50
2018-07-28T03:14:56.713Z,16.90
2018-07-28T03:17:24.308Z,15.50
2018-07-28T03:19:51.907Z,15.33
2018-07-28T03:22:19.530Z,16.63
2018-07-28T03:24:47.157Z,16.90
2018-07-28T03:27:14.744Z,15.43
2018-07-28T03:29:42.329Z,15.97
2018-07-28T03:32:09.950Z,16.93
2018-07-28T03:34:37.519Z,15.90
2018-07-28T03:37:05.271Z,15.80
2018-07-28T03:39:32.837Z,14.67
2018-07-28T03:42:00.435Z,17.03
2018-07-28T03:44:27.983Z,14.63
2018-07-28T03:46:55.596Z,15.20
2018-07-28T03:49:23.212Z,15.47
2018-07-28T03:51:50.751Z,15.03
2018-07-28T03:54:18.368Z,15.00
2018-07-28T03:56:45.986Z,15.67
2018-07-28T03:59:13.608Z,14.73
2018-07-28T04:01:41.230Z,14.13
2018-07-28T04:04:08.851Z,15.17
2018-07-28T04:06:36.451Z,14.90
2018-07-28T04:09:06.805Z,15.30
2018-07-28T04:11:34.433Z,13.63
2018-07-28T04:14:02.029Z,14.83
2018-07-28T04:16:29.599Z,14.17
2018-07-28T04:18:57.167Z,16.80
2018-07-28T04:21:24.722Z,15.93
2018-07-28T04:23:52.283Z,16.17
2018-07-28T04:26:19.894Z,14.30
2018-07-28T04:28:47.485Z,14.43
2018-07-28T04:31:15.079Z,15.20
2018-07-28T04:33:42.679Z,15.03
2018-07-28T04:36:10.236Z,16.50
2018-07-28T04:38:37.818Z,15.30
2018-07-28T04:41:05.467Z,15.83
2018-07-28T04:43:33.020Z,17.20
2018-07-28T04:46:00.464Z,17.00
2018-07-28T04:48:28.056Z,14.97
2018-07-28T04:50:55.638Z,16.07
2018-07-28T04:53:23.219Z,15.60
2018-07-28T04:55:50.799Z,16.93
2018-07-28T04:58:18.382Z,17.97
2018-07-28T05:00:45.948Z,16.60
2018-07-28T05:03:13.594Z,17.47
2018-07-28T05:05:41.170Z,16.80
2018-07-28T05:08:08.734Z,16.43
2018-07-28T05:10:36.316Z,15.27
2018-07-28T05:13:04.128Z,15.83
2018-07-28T05:15:31.715Z,15.60
2018-07-28T05:17:59.373Z,16.70
2018-07-28T05:20:26.948Z,15.53
2018-07-28T05:22:54.545Z,16.40
2018-07-28T05:25:22.219Z,17.07
2018-07-28T05:27:49.830Z,16.50
2018-07-28T05:30:17.412Z,16.57
2018-07-28T05:32:45.020Z,15.20
2018-07-28T05:35:12.670Z,20.23
2018-07-28T05:37:40.354Z,21.67
2018-07-28T05:40:07.989Z,20.40
2018-07-28T05:42:35.684Z,22.13
2018-07-28T05:45:03.819Z,21.47
2018-07-28T05:47:31.366Z,20.93
2018-07-28T05:49:59.032Z,20.73
2018-07-28T05:52:26.598Z,21.90
2018-07-28T05:54:54.348Z,21.60
2018-07-28T05:57:21.959Z,20.93
2018-07-28T05:59:49.511Z,21.97
2018-07-28T06:02:17.084Z,21.27
2018-07-28T06:04:44.777Z,23.27
2018-07-28T06:07:12.432Z,21.60
2018-07-28T06:09:40.019Z,22.40
2018-07-28T06:12:07.658Z,22.93
2018-07-28T06:14:35.282Z,23.80
2018-07-28T06:17:02.933Z,23.80
2018-07-28T06:19:30.575Z,23.47
2018-07-28T06:21:58.230Z,25.87
2018-07-28T06:24:25.778Z,22.87
2018-07-28T06:26:53.409Z,21.70
2018-07-28T06:29:21.015Z,21.73
2018-07-28T06:31:48.721Z,24.07
2018-07-28T06:34:16.247Z,22.20
2018-07-28T06:36:43.856Z,22.50
2018-07-28T06:39:13.165Z,22.83
2018-07-28T06:41:41.325Z,22.43
2018-07-28T06:44:08.991Z,24.13
2018-07-28T06:46:36.816Z,24.57
2018-07-28T06:49:04.830Z,24.13
2018-07-28T06:51:32.463Z,22.00
2018-07-28T06:54:00.076Z,22.30
2018-07-28T06:56:27.664Z,22.23
2018-07-28T06:58:55.244Z,21.13
2018-07-28T07:01:22.893Z,22.67
2018-07-28T07:03:50.538Z,21.97
2018-07-28T07:06:18.102Z,22.90
2018-07-28T07:08:45.728Z,19.80
2018-07-28T07:11:13.324Z,20.47
2018-07-28T07:13:41.057Z,19.70
2018-07-28T07:16:08.632Z,18.37
2018-07-28T07:18:36.255Z,19.90
2018-07-28T07:21:03.876Z,21.53
2018-07-28T07:23:31.453Z,20.27
2018-07-28T07:26:02.165Z,20.50
2018-07-28T07:28:29.707Z,17.77
2018-07-28T07:30:57.328Z,18.43
2018-07-28T07:33:25.010Z,18.37
2018-07-28T07:35:52.570Z,20.67
2018-07-28T07:38:20.117Z,17.27
2018-07-28T07:40:47.796Z,15.33
2018-07-28T07:43:15.346Z,17.67
2018-07-28T07:45:42.939Z,17.60
2018-07-28T07:48:10.653Z,15.77
2018-07-28T07:50:38.259Z,21.07
2018-07-28T07:53:05.848Z,14.10
2018-07-28T07:55:33.446Z,16.20
2018-07-28T07:58:00.978Z,14.80
2018-07-28T08:00:28.544Z,14.30
2018-07-28T08:02:56.138Z,14.23
2018-07-28T08:05:23.761Z,13.60
2018-07-28T08:07:51.836Z,13.57
2018-07-28T08:10:19.488Z,13.23
2018-07-28T08:12:47.188Z,12.37
2018-07-28T08:15:14.747Z,11.40
2018-07-28T08:17:42.360Z,11.87
2018-07-28T08:20:09.968Z,12.37
2018-07-28T08:22:37.616Z,11.80
2018-07-28T08:25:05.408Z,11.13
2018-07-28T08:27:33.145Z,11.60
2018-07-28T08:30:00.776Z,11.90
2018-07-28T08:32:28.413Z,12.30
2018-07-28T08:34:55.973Z,11.80
2018-07-28T08:37:23.664Z,12.10
2018-07-28T08:39:51.357Z,12.33
2018-07-28T08:42:18.912Z,13.87
2018-07-28T08:44:46.587Z,14.63
2018-07-28T08:47:14.200Z,14.90
2018-07-28T08:49:42.069Z,13.57
2018-07-28T08:52:09.687Z,15.13
2018-07-28T08:54:37.283Z,13.93
2018-07-28T08:57:04.987Z,13.57
2018-07-28T08:59:32.631Z,13.70
2018-07-28T09:02:00.303Z,13.20
2018-07-28T09:04:27.881Z,12.93
2018-07-28T09:06:56.451Z,12.80
2018-07-28T09:09:24.791Z,12.07
2018-07-28T09:11:52.422Z,12.53
2018-07-28T09:14:20.021Z,14.03
2018-07-28T09:16:47.624Z,13.30
2018-07-28T09:19:15.252Z,14.60
2018-07-28T09:21:42.932Z,13.50
2018-07-28T09:24:10.530Z,13.50
2018-07-28T09:26:38.181Z,11.90
2018-07-28T09:29:05.810Z,13.97
2018-07-28T09:31:33.394Z,13.17
2018-07-28T09:34:01.002Z,12.33
2018-07-28T09:36:28.692Z,12.67
2018-07-28T09:38:56.327Z,13.03
2018-07-28T09:41:24.033Z,12.73
2018-07-28T09:43:51.627Z,12.90
2018-07-28T09:46:19.235Z,12.80
2018-07-28T09:48:46.808Z,13.80
2018-07-28T09:51:14.477Z,12.40
2018-07-28T09:53:42.142Z,9.67
2018-07-28T09:56:09.814Z,8.83
2018-07-28T09:58:37.443Z,8.63
2018-07-28T10:01:10.711Z,7.63
2018-07-28T10:03:38.326Z,9.03
2018-07-28T10:06:05.945Z,9.80
2018-07-28T10:08:33.561Z,7.47
2018-07-28T10:11:01.238Z,8.03
2018-07-28T10:13:28.782Z,8.23
2018-07-28T10:15:56.420Z,7.60
2018-07-28T10:18:23.983Z,9.13
2018-07-28T10:20:51.559Z,10.43
2018-07-28T10:23:19.168Z,10.50
2018-07-28T10:25:46.752Z,10.77
2018-07-28T10:28:14.286Z,9.67
2018-07-28T10:30:41.903Z,10.30
2018-07-28T10:33:09.555Z,10.23
2018-07-28T10:35:37.176Z,10.53
2018-07-28T10:38:05.035Z,9.63
2018-07-28T10:40:32.680Z,13.03
2018-07-28T10:43:00.335Z,10.03
2018-07-28T10:45:28.042Z,10.57
2018-07-28T10:47:55.647Z,9.30
2018-07-28T10:50:23.236Z,8.30
2018-07-28T10:52:53.877Z,9.30
2018-07-28T10:55:21.559Z,9.93
2018-07-28T10:57:49.321Z,10.13
2018-07-28T11:00:17.051Z,9.17
2018-07-28T11:02:44.661Z,9.23
2018-07-28T11:05:12.315Z,8.53
2018-07-28T11:07:39.877Z,9.87
2018-07-28T11:10:08.967Z,8.77
2018-07-28T11:12:36.577Z,8.47
2018-07-28T11:15:05.530Z,7.90
2018-07-28T11:17:33.096Z,7.83
2018-07-28T11:20:00.709Z,7.00
2018-07-28T11:22:28.449Z,6.73
2018-07-28T11:24:56.053Z,7.33
2018-07-28T11:27:23.809Z,8.93
2018-07-28T11:29:51.480Z,6.37
2018-07-28T11:32:30.339Z,6.70
2018-07-28T11:35:09.158Z,6.47
2018-07-28T11:37:48.089Z,7.00
2018-07-28T11:40:26.911Z,5.60
2018-07-28T11:43:05.768Z,7.07
2018-07-28T11:45:33.342Z,5.60
2018-07-28T11:48:00.931Z,6.27
2018-07-28T11:50:28.932Z,5.33
2018-07-28T11:52:56.546Z,6.03
2018-07-28T11:55:24.122Z,6.10
2018-07-28T11:57:51.734Z,5.87
2018-07-28T12:00:19.296Z,6.37
2018-07-28T12:02:46.885Z,6.00
2018-07-28T12:05:14.515Z,5.70
2018-07-28T12:07:42.177Z,5.37
2018-07-28T12:10:09.986Z,4.70
2018-07-28T12:12:37.773Z,5.27
2018-07-28T12:15:06.014Z,5.93
2018-07-28T12:17:33.664Z,4.90
2018-07-28T12:20:01.885Z,4.70
2018-07-28T12:22:29.420Z,5.37
2018-07-28T12:24:57.030Z,6.07
2018-07-28T12:27:24.907Z,5.07
2018-07-28T12:29:52.504Z,5.20
2018-07-28T12:32:20.089Z,5.00
2018-07-28T12:34:47.733Z,5.70
2018-07-28T12:37:16.284Z,5.97
2018-07-28T12:39:43.869Z,5.27
2018-07-28T12:42:11.429Z,5.00
2018-07-28T12:44:39.005Z,4.67
2018-07-28T12:47:06.661Z,4.37
2018-07-28T12:49:34.287Z,4.80
2018-07-28T12:52:01.885Z,4.43
2018-07-28T12:54:29.438Z,6.23
2018-07-28T12:56:57.065Z,5.40
2018-07-28T12:59:24.623Z,5.70
2018-07-28T13:01:52.204Z,6.00
2018-07-28T13:04:19.827Z,6.30
2018-07-28T13:06:47.411Z,7.20
2018-07-28T13:09:14.971Z,6.83
2018-07-28T13:11:42.572Z,6.70
2018-07-28T13:14:10.341Z,6.57
2018-07-28T13:16:37.949Z,7.70
2018-07-28T13:19:05.594Z,6.90
2018-07-28T13:21:33.264Z,7.70
2018-07-28T13:24:00.916Z,6.53
2018-07-28T13:26:28.524Z,7.47
2018-07-28T13:28:56.137Z,8.17
2018-07-28T13:31:23.727Z,8.33
2018-07-28T13:33:51.285Z,9.00
2018-07-28T13:36:18.869Z,8.03
2018-07-28T13:38:46.443Z,8.47
2018-07-28T13:41:14.075Z,7.67
2018-07-28T13:43:41.683Z,8.70
2018-07-28T13:46:09.391Z,8.47
2018-07-28T13:48:36.999Z,8.27
2018-07-28T13:51:05.031Z,9.50
2018-07-28T13:53:32.665Z,7.53
2018-07-28T13:56:00.798Z,7.50
2018-07-28T13:58:28.518Z,8.70
2018-07-28T14:00:56.094Z,7.47
2018-07-28T14:03:23.744Z,8.47
2018-07-28T14:05:51.314Z,8.13
2018-07-28T14:08:18.920Z,8.50
2018-07-28T14:10:46.635Z,7.40
2018-07-28T14:13:14.370Z,7.70
2018-07-28T14:15:42.019Z,8.07
2018-07-28T14:18:09.657Z,7.73
2018-07-28T14:20:37.410Z,9.00
2018-07-28T14:23:05.077Z,8.57
2018-07-28T14:25:32.694Z,7.50
2018-07-28T14:28:00.262Z,7.20
2018-07-28T14:30:27.877Z,8.10
2018-07-28T14:32:55.607Z,7.80
2018-07-28T14:35:23.232Z,8.30
2018-07-28T14:37:50.843Z,8.70
2018-07-28T14:40:18.408Z,7.27
2018-07-28T14:42:45.972Z,7.67
2018-07-28T14:45:13.529Z,7.43
2018-07-28T14:47:41.127Z,7.40
2018-07-28T14:50:08.752Z,8.37
2018-07-28T14:52:36.570Z,8.27
2018-07-28T14:55:04.423Z,9.00
2018-07-28T14:57:32.061Z,7.50
2018-07-28T14:59:59.589Z,8.00
2018-07-28T15:02:27.210Z,7.83
2018-07-28T15:04:54.814Z,8.00
2018-07-28T15:07:22.406Z,11.73
2018-07-28T15:09:50.016Z,9.60
2018-07-28T15:12:17.589Z,7.70
2018-07-28T15:14:45.172Z,7.87
2018-07-28T15:17:13.630Z,7.97
2018-07-28T15:19:41.180Z,7.73
2018-07-28T15:22:08.826Z,7.73
2018-07-28T15:24:36.406Z,7.60
2018-07-28T15:27:04.096Z,7.97
2018-07-28T15:29:31.697Z,7.70
2018-07-28T15:31:59.390Z,8.10
2018-07-28T15:34:26.975Z,9.23
2018-07-28T15:36:54.586Z,8.07
2018-07-28T15:39:22.181Z,8.33
2018-07-28T15:41:49.720Z,7.43
2018-07-28T15:44:17.284Z,7.97
2018-07-28T15:46:45.549Z,8.67
2018-07-28T15:49:13.110Z,8.43
2018-07-28T15:51:40.698Z,8.00
2018-07-28T15:54:08.245Z,8.50
2018-07-28T15:56:35.864Z,8.10
2018-07-28T15:59:03.427Z,8.60
2018-07-28T16:01:31.052Z,7.80
2018-07-28T16:03:58.583Z,7.10
2018-07-28T16:06:26.165Z,7.87
2018-07-28T16:08:53.635Z,8.20
2018-07-28T16:11:21.223Z,8.73
2018-07-28T16:13:48.806Z,8.60
2018-07-28T16:16:16.378Z,8.63
2018-07-28T16:18:43.967Z,8.57
2018-07-28T16:21:11.560Z,8.70
2018-07-28T16:23:39.177Z,8.90
2018-07-28T16:26:07.117Z,7.60
2018-07-28T16:28:34.687Z,8.13
2018-07-28T16:31:02.293Z,8.77
2018-07-28T16:33:29.897Z,8.03
2018-07-28T16:35:57.491Z,8.63
2018-07-28T16:38:25.107Z,8.10
2018-07-28T16:40:52.751Z,9.10
2018-07-28T16:43:20.335Z,7.97
2018-07-28T16:45:47.957Z,8.93
2018-07-28T16:48:15.600Z,7.93
2018-07-28T16:50:43.221Z,8.43
2018-07-28T16:53:10.798Z,8.33
2018-07-28T16:55:38.955Z,9.13
2018-07-28T16:58:07.249Z,8.50
2018-07-28T17:00:34.813Z,8.90
2018-07-28T17:03:02.430Z,8.87
2018-07-28T17:05:30.008Z,9.13
2018-07-28T17:07:57.557Z,8.60
2018-07-28T17:10:25.147Z,8.73
2018-07-28T17:12:52.755Z,9.30
2018-07-28T17:15:20.432Z,15.30
2018-07-28T17:17:48.002Z,9.37
2018-07-28T17:20:15.603Z,9.50
2018-07-28T17:22:43.343Z,9.17
2018-07-28T17:25:10.813Z,8.40
2018-07-28T17:27:38.371Z,9.00
2018-07-28T17:30:06.049Z,8.40
2018-07-28T17:32:33.543Z,9.30
2018-07-28T17:35:01.836Z,8.00
2018-07-28T17:37:29.508Z,8.37
2018-07-28T17:39:57.072Z,8.87
2018-07-28T17:42:24.944Z,9.50
2018-07-28T17:44:52.564Z,9.40
2018-07-28T17:47:20.172Z,9.20
2018-07-28T17:49:47.781Z,9.37
2018-07-28T17:52:15.462Z,9.80
2018-07-28T17:54:43.120Z,10.73
2018-07-28T17:57:10.804Z,9.80
2018-07-28T17:59:38.428Z,9.50
2018-07-28T18:02:06.216Z,9.13
2018-07-28T18:04:33.813Z,9.30
2018-07-28T18:07:01.440Z,9.57
2018-07-28T18:09:29.032Z,8.63
2018-07-28T18:11:56.657Z,9.10
2018-07-28T18:14:25.260Z,9.57
2018-07-28T18:16:52.887Z,9.47
2018-07-28T18:19:20.597Z,9.97
2018-07-28T18:21:48.237Z,10.43
2018-07-28T18:24:15.872Z,10.57
2018-07-28T18:26:43.547Z,9.87
2018-07-28T18:29:11.160Z,9.20
2018-07-28T18:31:38.799Z,9.20
2018-07-28T18:34:06.492Z,10.80
2018-07-28T18:36:34.297Z,10.87
2018-07-28T18:39:02.060Z,11.67
2018-07-28T18:41:29.740Z,10.23
2018-07-28T18:43:57.359Z,10.17
2018-07-28T18:46:24.986Z,11.50
2018-07-28T18:48:52.668Z,10.53
2018-07-28T18:51:20.261Z,12.07
2018-07-28T18:53:47.831Z,10.50
2018-07-28T18:56:15.423Z,10.97
2018-07-28T18:58:43.092Z,12.20
2018-07-28T19:01:10.678Z,10.33
2018-07-28T19:03:38.357Z,11.60
2018-07-28T19:06:05.983Z,11.13
2018-07-28T19:08:33.573Z,12.47
2018-07-28T19:11:01.181Z,11.60
2018-07-28T19:13:34.280Z,10.27
2018-07-28T19:16:01.940Z,11.37
2018-07-28T19:18:35.128Z,11.43
2018-07-28T19:21:02.766Z,11.27
2018-07-28T19:23:36.012Z,11.57
2018-07-28T19:26:03.696Z,10.63
2018-07-28T19:28:36.816Z,11.67
2018-07-28T19:31:04.527Z,11.93
2018-07-28T19:33:32.077Z,10.70
2018-07-28T19:36:05.350Z,11.60
2018-07-28T19:38:33.070Z,10.93
2018-07-28T19:41:00.800Z,12.30
2018-07-28T19:43:28.463Z,12.20
2018-07-28T19:45:56.063Z,12.03
2018-07-28T19:48:23.670Z,11.53
2018-07-28T19:50:51.310Z,11.80
2018-07-28T19:53:18.960Z,11.43
2018-07-28T19:55:46.573Z,11.50
2018-07-28T19:58:14.232Z,11.87
2018-07-28T20:00:41.811Z,12.33
2018-07-28T20:03:09.411Z,11.40
2018-07-28T20:05:37.025Z,12.27
2018-07-28T20:08:04.578Z,12.80
2018-07-28T20:10:32.161Z,12.17
2018-07-28T20:12:59.805Z,11.90
2018-07-28T20:15:27.402Z,13.00
2018-07-28T20:17:56.766Z,11.40
2018-07-28T20:20:24.319Z,11.43
2018-07-28T20:22:51.896Z,11.60
2018-07-28T20:25:19.492Z,13.47
2018-07-28T20:27:47.137Z,11.93
2018-07-28T20:30:14.735Z,12.20
2018-07-28T20:32:44.319Z,12.43
2018-07-28T20:35:12.002Z,10.80
2018-07-28T20:37:39.567Z,12.90
2018-07-28T20:40:07.253Z,13.17
2018-07-28T20:42:34.924Z,12.43
2018-07-28T20:45:02.649Z,12.77
2018-07-28T20:47:30.270Z,13.40
2018-07-28T20:49:57.853Z,13.37
2018-07-28T20:52:25.426Z,13.80
2018-07-28T20:54:53.051Z,11.30
2018-07-28T20:57:20.620Z,14.20
2018-07-28T20:59:48.190Z,14.37
2018-07-28T21:02:15.792Z,13.63
2018-07-28T21:04:43.500Z,13.47
2018-07-28T21:07:11.105Z,13.30
2018-07-28T21:09:38.640Z,13.83
2018-07-28T21:12:06.299Z,14.77
2018-07-28T21:14:33.882Z,13.13
2018-07-28T21:17:01.507Z,13.47
2018-07-28T21:19:29.145Z,13.20
2018-07-28T21:21:56.748Z,13.13
2018-07-28T21:24:24.340Z,13.30
2018-07-28T21:26:51.964Z,14.33
2018-07-28T21:29:19.573Z,14.90
2018-07-28T21:31:47.179Z,12.93
2018-07-28T21:34:14.814Z,14.03
2018-07-28T21:36:42.492Z,12.30
2018-07-28T21:39:10.469Z,14.07
2018-07-28T21:41:38.168Z,13.87
2018-07-28T21:44:05.806Z,14.37
2018-07-28T21:46:34.100Z,13.73
2018-07-28T21:49:01.740Z,12.70
2018-07-28T21:51:29.363Z,13.23
2018-07-28T21:53:57.193Z,12.80
2018-07-28T21:56:24.812Z,13.90
2018-07-28T21:58:54.011Z,13.90
2018-07-28T22:01:21.725Z,13.80
2018-07-28T22:03:49.304Z,13.50
2018-07-28T22:06:16.900Z,14.20
2018-07-28T22:08:44.640Z,13.23
2018-07-28T22:11:12.229Z,13.83
2018-07-28T22:13:39.896Z,14.20
2018-07-28T22:16:07.516Z,13.47
2018-07-28T22:18:35.076Z,14.30
2018-07-28T22:21:02.737Z,14.87
2018-07-28T22:23:30.377Z,14.00
2018-07-28T22:25:58.361Z,14.07
2018-07-28T22:28:26.027Z,13.60
2018-07-28T22:30:53.681Z,12.87
2018-07-28T22:33:21.313Z,15.30
2018-07-28T22:35:48.914Z,13.27
2018-07-28T22:38:16.528Z,12.67
2018-07-28T22:40:44.050Z,13.50
2018-07-28T22:43:11.627Z,13.23
2018-07-28T22:45:39.210Z,14.10
2018-07-28T22:48:06.850Z,13.07
2018-07-28T22:50:34.430Z,13.83
2018-07-28T22:53:02.204Z,13.93
2018-07-28T22:55:29.843Z,13.40
2018-07-28T22:57:57.661Z,12.70
2018-07-28T23:00:25.244Z,14.07
2018-07-28T23:02:52.849Z,12.93
2018-07-28T23:05:21.441Z,12.70
2018-07-28T23:07:49.056Z,12.73
2018-07-28T23:10:16.585Z,12.37
2018-07-28T23:12:44.199Z,13.07
2018-07-28T23:15:11.871Z,14.33
2018-07-28T23:17:39.563Z,12.83
2018-07-28T23:20:07.221Z,14.50
2018-07-28T23:22:34.804Z,14.27
2018-07-28T23:25:02.401Z,12.60
2018-07-28T23:27:30.028Z,13.17
2018-07-28T23:29:57.591Z,14.67
2018-07-28T23:32:25.150Z,13.73
2018-07-28T23:34:52.734Z,12.87
2018-07-28T23:37:20.366Z,12.07
2018-07-28T23:39:48.790Z,12.67
2018-07-28T23:42:16.448Z,13.40
2018-07-28T23:44:44.054Z,13.60
2018-07-28T23:47:11.680Z,14.67
2018-07-28T23:49:39.274Z,13.03
2018-07-28T23:52:06.876Z,12.53
2018-07-28T23:54:34.451Z,13.17
2018-07-28T23:57:02.079Z,13.70
2018-07-28T23:59:29.662Z,13.37
